Campanya meteocatpedra

Dades de l'estació automàtica Vallfogona de Balaguer

?
?
Resum diari 21:00 TU
Dades diàries de l'estació meteorològica
Temperatura mitjana 24.9 °C
Temperatura màxima 31.9 °C 16:16 TU
Temperatura mínima 17.6 °C 5:00 TU
Humitat relativa mitjana 56%
Precipitació acumulada 0.0 mm
Ratxa màxima del vent (2 m) 18.7 km/h - 248º 15:02 TU
Irradiació solar global 27.1 MJ/m2

El tram horari està expressat en Temps Universal (TU). Cal sumar una hora en horari d'hivern i dues en horari d'estiu per passar a l'hora oficial.

Vallfogona de Balaguer

Metadades estació meteorol´gica
Municipi Vallfogona de Balaguer
Comarca Noguera
Altitud 238 m
Data alta 17.10.1990
Estat actual Operativa
Dades de període
Període
TU
TM
°C
TX
°C
TN
°C
HRM
%
PPT
mm
VVM (2 m)
km/h
DVM (2 m)
graus
VVX (2 m)
km/h
RS
W/m2
00:00 - 00:30 19.2 19.6 19.0 78 0.0 2.9 145 6.8 0
00:30 - 01:00 18.9 19.2 18.6 79 0.0 2.2 136 6.1 0
01:00 - 01:30 18.9 19.5 18.6 78 0.0 2.9 130 6.8 0
01:30 - 02:00 19.7 19.8 19.5 73 0.0 3.2 129 9.0 0
02:00 - 02:30 19.4 19.7 18.8 74 0.0 1.4 134 5.0 0
02:30 - 03:00 18.6 19.1 18.3 77 0.0 1.1 133 7.9 0
03:00 - 03:30 19.1 19.2 18.9 74 0.0 1.8 130 6.1 0
03:30 - 04:00 18.9 19.0 18.8 76 0.0 1.8 133 4.7 0
04:00 - 04:30 18.5 18.8 18.3 77 0.0 1.4 137 4.7 1
04:30 - 05:00 18.1 18.3 17.6 79 0.0 0.4 219 4.3 16
05:00 - 05:30 18.1 19.0 17.6 82 0.0 1.4 7 4.7 70
05:30 - 06:00 20.0 20.5 19.0 74 0.0 2.2 21 9.7 97
06:00 - 06:30 20.5 21.2 19.9 72 0.0 4.3 9 9.0 160
06:30 - 07:00 21.7 22.1 21.2 68 0.0 2.5 13 5.8 182
07:00 - 07:30 23.0 23.6 22.2 63 0.0 1.8 30 7.6 243
07:30 - 08:00 23.7 24.8 23.4 61 0.0 1.8 79 6.5 273
08:00 - 08:30 25.8 26.5 25.0 53 0.0 2.9 57 8.6 632
08:30 - 09:00 26.1 26.7 25.6 53 0.0 2.5 155 8.6 592
09:00 - 09:30 26.1 26.6 25.7 53 0.0 2.9 232 8.6 760
09:30 - 10:00 26.3 26.8 25.9 53 0.0 3.2 199 9.4 689
10:00 - 10:30 27.2 27.9 26.5 50 0.0 3.6 210 11.5 865
10:30 - 11:00 27.2 27.7 26.8 49 0.0 4.7 241 11.5 883
11:00 - 11:30 27.8 28.2 27.5 47 0.0 4.0 206 10.8 819
11:30 - 12:00 28.5 29.3 27.5 47 0.0 4.0 203 10.8 934
12:00 - 12:30 29.0 29.3 28.5 44 0.0 4.3 207 13.0 909
12:30 - 13:00 29.4 30.2 28.7 42 0.0 4.7 222 11.5 879
13:00 - 13:30 29.7 30.2 29.2 41 0.0 5.8 224 13.3 802
13:30 - 14:00 29.6 30.2 29.3 42 0.0 5.0 221 14.4 789
14:00 - 14:30 30.4 31.1 29.8 36 0.0 6.1 241 15.8 833
14:30 - 15:00 30.9 31.2 30.5 33 0.0 5.0 212 15.8 754
15:00 - 15:30 30.9 31.2 30.7 32 0.0 5.0 216 18.7 651
15:30 - 16:00 31.1 31.4 30.9 31 0.0 5.4 219 14.4 595
16:00 - 16:30 31.5 31.9 31.2 25 0.0 5.4 227 14.8 535
16:30 - 17:00 31.1 31.4 30.7 25 0.0 5.4 250 10.8 296
17:00 - 17:30 31.0 31.5 30.5 24 0.0 5.0 238 12.2 330
17:30 - 18:00 30.8 31.1 30.5 26 0.0 4.3 218 12.6 253
18:00 - 18:30 30.1 30.4 29.5 28 0.0 3.6 208 9.7 152
18:30 - 19:00 28.0 29.5 26.3 46 0.0 6.5 163 15.1 44
19:00 - 19:30 25.7 26.3 25.0 58 0.0 7.9 139 14.0 14
19:30 - 20:00 24.5 25.0 24.1 62 0.0 5.8 120 11.5 1
20:00 - 20:30 23.7 24.1 23.5 66 0.0 1.4 34 7.6 0
20:30 - 21:00 23.2 23.4 22.9 67 0.0 1.8 97 11.9 0
21:00 - 21:30 22.7 22.9 22.4 69 0.0 3.2 130 9.4 0
21:30 - 22:00 22.1 22.4 21.9 70 0.0 2.2 116 10.4 0

Les dades en taronja només han passat un control de qualitat automàtic. Resta pendent la seva validació definitiva.